
Distance (Route):
Temperature : -3.0°C
Humidity : 0%
Pressure : 0hPa| Receiver | Frames | First received | Last received |
|---|---|---|---|
| KE7DJD | 82 | 2026-09-01 01:22:15 | 2026-09-01 01:51:22 |
| Receiver | Date | Latitude | Longitude | Direction | Speed | Altitude | Climb | Temperature | Humidity | Pressure | Voltage | Killtimer | Uptime | BKT | XDATA |
|---|---|---|---|---|---|---|---|---|---|---|---|---|---|---|---|
| KE7DJD | 2026-09-01 01:51:22 | 41.30580 | -115.37135 | 113° | 20km/h | 5741m | -5.0m/s | -3.0°C | 0% | 0hPa | 0V | 00:00:00 | 00:00:00 | 00:00:00 | |
| KE7DJD | 2026-09-01 01:50:55 | 41.30609 | -115.37285 | 99° | 15km/h | 5877m | -5.3m/s | -3.9°C | 0% | 0hPa | 0V | 00:00:00 | 00:00:00 | 00:00:00 | |
| KE7DJD | 2026-09-01 01:50:33 | 41.30623 | -115.37403 | 95° | 15km/h | 6002m | -5.4m/s | -4.7°C | 0% | 0hPa | 0V | 00:00:00 | 00:00:00 | 00:00:00 | |
| KE7DJD | 2026-09-01 01:50:11 | 41.30629 | -115.37509 | 97° | 15km/h | 6124m | -5.6m/s | -5.8°C | 0% | 0hPa | 0V | 00:00:00 | 00:00:00 | 00:00:00 | |
| KE7DJD | 2026-09-01 01:49:51 | 41.30636 | -115.37609 | 97° | 13km/h | 6242m | -6.0m/s | -6.7°C | 0% | 0hPa | 0V | 00:00:00 | 00:00:00 | 00:00:00 | |
| KE7DJD | 2026-09-01 01:49:28 | 41.30640 | -115.37706 | 84° | 13km/h | 6380m | -6.0m/s | -7.8°C | 0% | 0hPa | 0V | 00:00:00 | 00:00:00 | 00:00:00 | |
| KE7DJD | 2026-09-01 01:48:52 | 41.30586 | -115.37889 | 59° | 18km/h | 6599m | -6.1m/s | -9.0°C | 0% | 0hPa | 0V | 00:00:00 | 00:00:00 | 00:00:00 | |
| KE7DJD | 2026-09-01 01:48:30 | 41.30522 | -115.38008 | 57° | 22km/h | 6727m | -6.2m/s | -9.8°C | 0% | 0hPa | 0V | 00:00:00 | 00:00:00 | 00:00:00 | |
| KE7DJD | 2026-09-01 01:48:10 | 41.30445 | -115.38149 | 53° | 29km/h | 6851m | -5.8m/s | -10.7°C | 0% | 0hPa | 0V | 00:00:00 | 00:00:00 | 00:00:00 | |
| KE7DJD | 2026-09-01 01:47:49 | 41.30343 | -115.38299 | 45° | 33km/h | 6976m | -6.0m/s | -11.6°C | 0% | 0hPa | 0V | 00:00:00 | 00:00:00 | 00:00:00 | |
| KE7DJD | 2026-09-01 01:47:28 | 41.30223 | -115.38447 | 44° | 33km/h | 7095m | -6.3m/s | -12.5°C | 0% | 0hPa | 0V | 00:00:00 | 00:00:00 | 00:00:00 | |
| KE7DJD | 2026-09-01 01:47:07 | 41.30103 | -115.38616 | 47° | 33km/h | 7226m | -6.3m/s | -13.7°C | 0% | 0hPa | 0V | 00:00:00 | 00:00:00 | 00:00:00 | |
| KE7DJD | 2026-09-01 01:46:46 | 41.29982 | -115.38782 | 45° | 33km/h | 7356m | -6.4m/s | -14.4°C | 0% | 0hPa | 0V | 00:00:00 | 00:00:00 | 00:00:00 | |
| KE7DJD | 2026-09-01 01:46:26 | 41.29860 | -115.38937 | 47° | 35km/h | 7481m | -6.2m/s | -15.3°C | 0% | 0hPa | 0V | 00:00:00 | 00:00:00 | 00:00:00 | |
| KE7DJD | 2026-09-01 01:46:05 | 41.29728 | -115.39108 | 42° | 35km/h | 7615m | -6.4m/s | -15.9°C | 0% | 0hPa | 0V | 00:00:00 | 00:00:00 | 00:00:00 | |
| KE7DJD | 2026-09-01 01:45:45 | 41.29596 | -115.39292 | 47° | 38km/h | 7726m | -5.0m/s | -16.8°C | 0% | 0hPa | 0V | 00:00:00 | 00:00:00 | 00:00:00 | |
| KE7DJD | 2026-09-01 01:45:24 | 41.29447 | -115.39469 | 41° | 38km/h | 7851m | -6.8m/s | -18.0°C | 0% | 0hPa | 0V | 00:00:00 | 00:00:00 | 00:00:00 | |
| KE7DJD | 2026-09-01 01:45:04 | 41.29296 | -115.39624 | 38° | 37km/h | 7981m | -6.0m/s | -19.3°C | 0% | 0hPa | 0V | 00:00:00 | 00:00:00 | 00:00:00 | |
| KE7DJD | 2026-09-01 01:44:44 | 41.29144 | -115.39770 | 38° | 35km/h | 8114m | -6.4m/s | -20.6°C | 0% | 0hPa | 0V | 00:00:00 | 00:00:00 | 00:00:00 | |
| KE7DJD | 2026-09-01 01:44:23 | 41.28999 | -115.39906 | 33° | 35km/h | 8246m | -6.3m/s | -21.3°C | 0% | 0hPa | 0V | 00:00:00 | 00:00:00 | 00:00:00 | |
| KE7DJD | 2026-09-01 01:44:02 | 41.28841 | -115.40040 | 36° | 38km/h | 8370m | -6.2m/s | -21.9°C | 0% | 0hPa | 0V | 00:00:00 | 00:00:00 | 00:00:00 | |
| KE7DJD | 2026-09-01 01:43:42 | 41.28686 | -115.40220 | 45° | 40km/h | 8496m | -6.7m/s | -23.1°C | 0% | 0hPa | 0V | 00:00:00 | 00:00:00 | 00:00:00 | |
| KE7DJD | 2026-09-01 01:43:01 | 41.28385 | -115.40623 | 48° | 42km/h | 8769m | -6.6m/s | -25.3°C | 0% | 0hPa | 0V | 00:00:00 | 00:00:00 | 00:00:00 | |
| KE7DJD | 2026-09-01 01:42:41 | 41.28227 | -115.40835 | 44° | 42km/h | 8911m | -7.1m/s | -26.6°C | 0% | 0hPa | 0V | 00:00:00 | 00:00:00 | 00:00:00 | |
| KE7DJD | 2026-09-01 01:42:20 | 41.28065 | -115.41015 | 36° | 42km/h | 9045m | -6.7m/s | -27.8°C | 0% | 0hPa | 0V | 00:00:00 | 00:00:00 | 00:00:00 | |
| KE7DJD | 2026-09-01 01:42:00 | 41.27875 | -115.41183 | 34° | 44km/h | 9182m | -7.0m/s | -29.0°C | 0% | 0hPa | 0V | 00:00:00 | 00:00:00 | 00:00:00 | |
| KE7DJD | 2026-09-01 01:41:39 | 41.27678 | -115.41356 | 33° | 46km/h | 9326m | -6.7m/s | -30.3°C | 0% | 0hPa | 0V | 00:00:00 | 00:00:00 | 00:00:00 | |
| KE7DJD | 2026-09-01 01:41:18 | 41.27477 | -115.41521 | 30° | 49km/h | 9460m | -6.7m/s | -31.2°C | 0% | 0hPa | 0V | 00:00:00 | 00:00:00 | 00:00:00 | |
| KE7DJD | 2026-09-01 01:40:58 | 41.27242 | -115.41674 | 25° | 53km/h | 9596m | -6.5m/s | -32.3°C | 0% | 0hPa | 0V | 00:00:00 | 00:00:00 | 00:00:00 | |
| KE7DJD | 2026-09-01 01:40:37 | 41.26981 | -115.41812 | 22° | 55km/h | 9732m | -6.8m/s | -33.1°C | 0% | 0hPa | 0V | 00:00:00 | 00:00:00 | 00:00:00 | |
| KE7DJD | 2026-09-01 01:40:17 | 41.26711 | -115.41953 | 22° | 57km/h | 9875m | -6.9m/s | -34.4°C | 0% | 0hPa | 0V | 00:00:00 | 00:00:00 | 00:00:00 | |
| KE7DJD | 2026-09-01 01:39:56 | 41.26441 | -115.42082 | 18° | 58km/h | 10013m | -6.9m/s | -35.5°C | 0% | 0hPa | 0V | 00:00:00 | 00:00:00 | 00:00:00 | |
| KE7DJD | 2026-09-01 01:39:36 | 41.26140 | -115.42212 | 18° | 60km/h | 10150m | -6.8m/s | -36.5°C | 0% | 0hPa | 0V | 00:00:00 | 00:00:00 | 00:00:00 | |
| KE7DJD | 2026-09-01 01:39:15 | 41.25850 | -115.42333 | 18° | 62km/h | 10291m | -7.8m/s | -37.8°C | 0% | 0hPa | 0V | 00:00:00 | 00:00:00 | 00:00:00 | |
| KE7DJD | 2026-09-01 01:38:55 | 41.25522 | -115.42474 | 19° | 69km/h | 10427m | -6.3m/s | -38.9°C | 0% | 0hPa | 0V | 00:00:00 | 00:00:00 | 00:00:00 | |
| KE7DJD | 2026-09-01 01:38:34 | 41.25168 | -115.42612 | 16° | 77km/h | 10560m | -7.3m/s | -39.9°C | 0% | 0hPa | 0V | 00:00:00 | 00:00:00 | 00:00:00 | |
| KE7DJD | 2026-09-01 01:38:14 | 41.24745 | -115.42735 | 13° | 84km/h | 10702m | -6.9m/s | -41.1°C | 0% | 0hPa | 0V | 00:00:00 | 00:00:00 | 00:00:00 | |
| KE7DJD | 2026-09-01 01:37:53 | 41.24278 | -115.42829 | 9° | 99km/h | 10836m | -6.9m/s | -41.9°C | 0% | 0hPa | 0V | 00:00:00 | 00:00:00 | 00:00:00 | |
| KE7DJD | 2026-09-01 01:37:32 | 41.23747 | -115.42922 | 10° | 100km/h | 10976m | -6.5m/s | -42.7°C | 0% | 0hPa | 0V | 00:00:00 | 00:00:00 | 00:00:00 | |
| KE7DJD | 2026-09-01 01:37:11 | 41.23232 | -115.43056 | 16° | 95km/h | 11120m | -6.7m/s | -43.6°C | 0% | 0hPa | 0V | 00:00:00 | 00:00:00 | 00:00:00 | |
| KE7DJD | 2026-09-01 01:36:51 | 41.22787 | -115.43219 | 17° | 88km/h | 11272m | -7.7m/s | -44.9°C | 0% | 0hPa | 0V | 00:00:00 | 00:00:00 | 00:00:00 | |
| KE7DJD | 2026-09-01 01:36:30 | 41.22375 | -115.43411 | 24° | 75km/h | 11434m | -8.0m/s | -45.0°C | 0% | 0hPa | 0V | 00:00:00 | 00:00:00 | 00:00:00 | |
| KE7DJD | 2026-09-01 01:36:10 | 41.22058 | -115.43613 | 31° | 64km/h | 11588m | -7.8m/s | -45.2°C | 0% | 0hPa | 0V | 00:00:00 | 00:00:00 | 00:00:00 | |
| KE7DJD | 2026-09-01 01:35:50 | 41.21810 | -115.43821 | 38° | 47km/h | 11757m | -7.9m/s | -45.8°C | 0% | 0hPa | 0V | 00:00:00 | 00:00:00 | 00:00:00 | |
| KE7DJD | 2026-09-01 01:35:28 | 41.21645 | -115.44032 | 47° | 42km/h | 11929m | -7.9m/s | -46.1°C | 0% | 0hPa | 0V | 00:00:00 | 00:00:00 | 00:00:00 | |
| KE7DJD | 2026-09-01 01:35:03 | 41.21464 | -115.44253 | 42° | 35km/h | 12129m | -7.8m/s | -46.1°C | 0% | 0hPa | 0V | 00:00:00 | 00:00:00 | 00:00:00 | |
| KE7DJD | 2026-09-01 01:34:43 | 41.21309 | -115.44437 | 46° | 44km/h | 12293m | -6.4m/s | -46.6°C | 0% | 0hPa | 0V | 00:00:00 | 00:00:00 | 00:00:00 | |
| KE7DJD | 2026-09-01 01:34:22 | 41.21168 | -115.44663 | 54° | 40km/h | 12435m | -7.1m/s | -46.9°C | 0% | 0hPa | 0V | 00:00:00 | 00:00:00 | 00:00:00 | |
| KE7DJD | 2026-09-01 01:33:41 | 41.20810 | -115.45132 | 48° | 51km/h | 12732m | -7.2m/s | -47.3°C | 0% | 0hPa | 0V | 00:00:00 | 00:00:00 | 00:00:00 | |
| KE7DJD | 2026-09-01 01:33:21 | 41.20622 | -115.45412 | 48° | 51km/h | 12886m | -7.4m/s | -47.7°C | 0% | 0hPa | 0V | 00:00:00 | 00:00:00 | 00:00:00 | |
| KE7DJD | 2026-09-01 01:32:59 | 41.20395 | -115.45656 | 37° | 58km/h | 13044m | -7.6m/s | -47.8°C | 0% | 0hPa | 0V | 00:00:00 | 00:00:00 | 00:00:00 | |
| KE7DJD | 2026-09-01 01:32:39 | 41.20140 | -115.45915 | 41° | 68km/h | 13198m | -7.5m/s | -48.5°C | 0% | 0hPa | 0V | 00:00:00 | 00:00:00 | 00:00:00 | |
| KE7DJD | 2026-09-01 01:32:18 | 41.19878 | -115.46216 | 44° | 60km/h | 13362m | -7.9m/s | -49.0°C | 0% | 0hPa | 0V | 00:00:00 | 00:00:00 | 00:00:00 | |
| KE7DJD | 2026-09-01 01:31:58 | 41.19669 | -115.46522 | 51° | 62km/h | 13522m | -8.0m/s | -48.7°C | 0% | 0hPa | 0V | 00:00:00 | 00:00:00 | 00:00:00 | |
| KE7DJD | 2026-09-01 01:31:38 | 41.19448 | -115.46862 | 54° | 66km/h | 13693m | -8.4m/s | -48.8°C | 0% | 0hPa | 0V | 00:00:00 | 00:00:00 | 00:00:00 | |
| KE7DJD | 2026-09-01 01:31:17 | 41.19240 | -115.47204 | 52° | 62km/h | 13859m | -8.1m/s | -47.8°C | 0% | 0hPa | 0V | 00:00:00 | 00:00:00 | 00:00:00 | |
| KE7DJD | 2026-09-01 01:30:57 | 41.19050 | -115.47551 | 51° | 58km/h | 14032m | -8.4m/s | -48.5°C | 0% | 0hPa | 0V | 00:00:00 | 00:00:00 | 00:00:00 | |
| KE7DJD | 2026-09-01 01:30:29 | 41.18781 | -115.48012 | 58° | 58km/h | 14270m | -8.4m/s | -48.3°C | 0% | 0hPa | 0V | 00:00:00 | 00:00:00 | 00:00:00 | |
| KE7DJD | 2026-09-01 01:30:09 | 41.18624 | -115.48342 | 60° | 58km/h | 14442m | -8.7m/s | -48.8°C | 0% | 0hPa | 0V | 00:00:00 | 00:00:00 | 00:00:00 | |
| KE7DJD | 2026-09-01 01:29:48 | 41.18455 | -115.48636 | 43° | 51km/h | 14624m | -8.6m/s | -49.0°C | 0% | 0hPa | 0V | 00:00:00 | 00:00:00 | 00:00:00 | |
| KE7DJD | 2026-09-01 01:29:27 | 41.18248 | -115.48866 | 44° | 51km/h | 14799m | -8.8m/s | -48.9°C | 0% | 0hPa | 0V | 00:00:00 | 00:00:00 | 00:00:00 | |
| KE7DJD | 2026-09-01 01:29:07 | 41.18045 | -115.49094 | 43° | 51km/h | 14985m | -9.1m/s | -49.2°C | 0% | 0hPa | 0V | 00:00:00 | 00:00:00 | 00:00:00 | |
| KE7DJD | 2026-09-01 01:28:46 | 41.17849 | -115.49344 | 46° | 51km/h | 15165m | -9.2m/s | -49.6°C | 0% | 0hPa | 0V | 00:00:00 | 00:00:00 | 00:00:00 | |
| KE7DJD | 2026-09-01 01:28:26 | 41.17645 | -115.49587 | 42° | 49km/h | 15359m | -9.5m/s | -50.2°C | 0% | 0hPa | 0V | 00:00:00 | 00:00:00 | 00:00:00 | |
| KE7DJD | 2026-09-01 01:28:05 | 41.17455 | -115.49820 | 45° | 53km/h | 15548m | -9.5m/s | -51.0°C | 0% | 0hPa | 0V | 00:00:00 | 00:00:00 | 00:00:00 | |
| KE7DJD | 2026-09-01 01:27:45 | 41.17252 | -115.50090 | 47° | 55km/h | 15747m | -9.6m/s | -51.4°C | 0% | 0hPa | 0V | 00:00:00 | 00:00:00 | 00:00:00 | |
| KE7DJD | 2026-09-01 01:27:24 | 41.17056 | -115.50352 | 44° | 55km/h | 15948m | -9.8m/s | -50.8°C | 0% | 0hPa | 0V | 00:00:00 | 00:00:00 | 00:00:00 | |
| KE7DJD | 2026-09-01 01:27:03 | 41.16860 | -115.50587 | 38° | 47km/h | 16144m | -9.7m/s | -51.1°C | 0% | 0hPa | 0V | 00:00:00 | 00:00:00 | 00:00:00 | |
| KE7DJD | 2026-09-01 01:26:42 | 41.16671 | -115.50796 | 39° | 46km/h | 16356m | -10.2m/s | -51.4°C | 0% | 0hPa | 0V | 00:00:00 | 00:00:00 | 00:00:00 | |
| KE7DJD | 2026-09-01 01:26:22 | 41.16503 | -115.51009 | 49° | 47km/h | 16562m | -10.4m/s | -52.2°C | 0% | 0hPa | 0V | 00:00:00 | 00:00:00 | 00:00:00 | |
| KE7DJD | 2026-09-01 01:26:02 | 41.16342 | -115.51242 | 47° | 44km/h | 16780m | -10.5m/s | -52.4°C | 0% | 0hPa | 0V | 00:00:00 | 00:00:00 | 00:00:00 | |
| KE7DJD | 2026-09-01 01:25:41 | 41.16168 | -115.51418 | 41° | 42km/h | 16992m | -10.6m/s | -52.3°C | 0% | 0hPa | 0V | 00:00:00 | 00:00:00 | 00:00:00 | |
| KE7DJD | 2026-09-01 01:25:21 | 41.15991 | -115.51597 | 25° | 44km/h | 17217m | -11.2m/s | -52.3°C | 0% | 0hPa | 0V | 00:00:00 | 00:00:00 | 00:00:00 | |
| KE7DJD | 2026-09-01 01:25:00 | 41.15794 | -115.51765 | 49° | 53km/h | 17437m | -10.9m/s | -52.6°C | 0% | 0hPa | 0V | 00:00:00 | 00:00:00 | 00:00:00 | |
| KE7DJD | 2026-09-01 01:24:40 | 41.15608 | -115.52035 | 52° | 53km/h | 17666m | -11.0m/s | -51.6°C | 0% | 0hPa | 0V | 00:00:00 | 00:00:00 | 00:00:00 | |
| KE7DJD | 2026-09-01 01:24:19 | 41.15445 | -115.52338 | 59° | 49km/h | 17898m | -10.9m/s | -52.2°C | 0% | 0hPa | 0V | 00:00:00 | 00:00:00 | 00:00:00 | |
| KE7DJD | 2026-09-01 01:23:59 | 41.15325 | -115.52579 | 52° | 40km/h | 18122m | -11.5m/s | -52.0°C | 0% | 0hPa | 0V | 00:00:00 | 00:00:00 | 00:00:00 | |
| KE7DJD | 2026-09-01 01:23:38 | 41.15212 | -115.52775 | 53° | 40km/h | 18354m | -11.8m/s | -52.7°C | 0% | 0hPa | 0V | 00:00:00 | 00:00:00 | 00:00:00 | |
| KE7DJD | 2026-09-01 01:23:18 | 41.15128 | -115.53040 | 79° | 29km/h | 18606m | -12.3m/s | -51.9°C | 0% | 0hPa | 0V | 00:00:00 | 00:00:00 | 00:00:00 | |
| KE7DJD | 2026-09-01 01:22:57 | 41.15092 | -115.53191 | 70° | 20km/h | 18857m | -13.1m/s | -51.2°C | 0% | 0hPa | 0V | 00:00:00 | 00:00:00 | 00:00:00 | |
| KE7DJD | 2026-09-01 01:22:37 | 41.14977 | -115.53289 | 16° | 24km/h | 19138m | -13.2m/s | -51.1°C | 0% | 0hPa | 0V | 00:00:00 | 00:00:00 | 00:00:00 | |
| KE7DJD | 2026-09-01 01:22:15 | 41.14863 | -115.53293 | 6° | 20km/h | 19422m | -13.8m/s | -52.2°C | 0% | 0hPa | 0V | 00:00:00 | 00:00:00 | 00:00:00 |